createdAt,value
2023-02-09T00:02:47.631Z,10.63
2023-02-09T00:05:51.467Z,10.48
2023-02-09T00:08:57.973Z,9.20
2023-02-09T00:12:15.040Z,11.57
2023-02-09T00:15:22.821Z,12.00
2023-02-09T00:18:27.982Z,13.02
2023-02-09T00:21:34.190Z,12.63
2023-02-09T00:24:38.580Z,15.55
2023-02-09T00:27:44.362Z,10.25
2023-02-09T00:30:50.133Z,11.23
2023-02-09T00:33:56.457Z,12.90
2023-02-09T00:37:00.329Z,15.63
2023-02-09T00:40:06.841Z,13.32
2023-02-09T00:43:11.669Z,7.90
2023-02-09T00:46:19.498Z,13.10
2023-02-09T00:49:23.421Z,12.77
2023-02-09T00:52:29.372Z,12.50
2023-02-09T00:55:33.232Z,13.63
2023-02-09T00:58:39.062Z,10.10
2023-02-09T01:01:44.889Z,10.18
2023-02-09T01:04:50.705Z,9.98
2023-02-09T01:07:54.830Z,12.50
2023-02-09T01:11:00.790Z,10.20
2023-02-09T01:14:06.190Z,11.27
2023-02-09T01:17:13.936Z,10.00
2023-02-09T01:20:19.412Z,11.30
2023-02-09T01:23:25.234Z,11.80
2023-02-09T01:26:29.415Z,9.68
2023-02-09T01:29:35.288Z,11.68
2023-02-09T01:32:41.016Z,10.63
2023-02-09T01:35:46.880Z,12.25
2023-02-09T01:38:51.020Z,10.95
2023-02-09T01:41:56.963Z,11.77
2023-02-09T01:45:26.563Z,13.02
2023-02-09T01:48:34.396Z,12.95
2023-02-09T01:51:42.093Z,12.50
2023-02-09T01:54:51.697Z,14.60
2023-02-09T01:57:59.439Z,11.63
2023-02-09T02:01:05.659Z,13.57
2023-02-09T02:04:12.188Z,12.70
2023-02-09T02:07:21.873Z,10.57
2023-02-09T02:10:25.831Z,14.70
2023-02-09T02:13:31.891Z,11.95
2023-02-09T02:16:51.884Z,13.23
2023-02-09T02:20:30.094Z,11.27
2023-02-09T02:23:40.802Z,16.75
2023-02-09T02:26:59.513Z,11.48
2023-02-09T02:30:35.629Z,9.77
2023-02-09T02:33:46.790Z,12.00
2023-02-09T02:37:01.165Z,16.10
2023-02-09T02:40:16.021Z,16.52
2023-02-09T02:43:26.522Z,11.30
2023-02-09T02:46:36.967Z,12.73
2023-02-09T02:49:49.519Z,12.93
2023-02-09T02:52:59.186Z,15.63
2023-02-09T02:56:08.716Z,14.73
2023-02-09T02:59:18.681Z,13.27
2023-02-09T03:02:26.007Z,11.55
2023-02-09T03:05:34.548Z,14.32
2023-02-09T03:08:49.158Z,16.02
2023-02-09T03:12:02.028Z,16.67
2023-02-09T03:15:18.645Z,16.45
2023-02-09T03:18:30.124Z,15.57
2023-02-09T03:21:46.333Z,14.98
2023-02-09T03:24:58.243Z,12.90
2023-02-09T03:28:06.169Z,20.58
2023-02-09T03:31:12.811Z,16.02
2023-02-09T03:34:17.586Z,13.70
2023-02-09T03:37:25.999Z,12.15
2023-02-09T03:40:29.963Z,15.52
2023-02-09T03:43:54.413Z,14.68
2023-02-09T03:47:00.406Z,14.50
2023-02-09T03:50:06.829Z,13.05
2023-02-09T03:53:12.592Z,15.50
2023-02-09T03:56:18.406Z,17.83
2023-02-09T03:59:24.566Z,17.48
2023-02-09T04:02:30.422Z,12.77
2023-02-09T04:05:34.356Z,16.23
2023-02-09T04:08:42.495Z,14.10
2023-02-09T04:11:46.922Z,14.82
2023-02-09T04:14:52.836Z,17.98
2023-02-09T04:17:56.640Z,17.05
2023-02-09T04:21:02.544Z,14.10
2023-02-09T04:24:09.176Z,16.67
2023-02-09T04:27:15.036Z,16.85
2023-02-09T04:30:19.072Z,15.23
2023-02-09T04:33:25.939Z,18.73
2023-02-09T04:36:30.003Z,15.63
2023-02-09T04:39:37.780Z,11.80
2023-02-09T04:42:41.681Z,16.70
2023-02-09T04:45:48.164Z,13.82
2023-02-09T04:48:52.136Z,16.27
2023-02-09T04:51:57.962Z,14.25
2023-02-09T04:55:03.863Z,13.52
2023-02-09T04:58:27.298Z,16.27
2023-02-09T05:01:32.018Z,15.27
2023-02-09T05:04:38.064Z,17.55
2023-02-09T05:07:41.896Z,13.63
2023-02-09T05:10:49.655Z,17.77
2023-02-09T05:13:53.512Z,13.45
2023-02-09T05:16:59.643Z,12.82
2023-02-09T05:20:03.627Z,13.88
2023-02-09T05:23:09.515Z,13.25
2023-02-09T05:26:15.255Z,12.52
2023-02-09T05:29:22.281Z,18.83
2023-02-09T05:32:26.269Z,16.08
2023-02-09T05:35:32.188Z,13.50
2023-02-09T05:38:36.217Z,15.43
2023-02-09T05:41:57.098Z,14.48
2023-02-09T05:45:00.988Z,16.40
2023-02-09T05:48:07.028Z,15.30
2023-02-09T05:51:10.909Z,19.77
2023-02-09T05:54:16.886Z,17.52
2023-02-09T05:57:22.616Z,19.77
2023-02-09T06:00:29.239Z,15.43
2023-02-09T06:03:33.121Z,17.20
2023-02-09T06:06:38.995Z,13.63
2023-02-09T06:09:42.796Z,17.00
2023-02-09T06:12:50.612Z,15.35
2023-02-09T06:15:54.594Z,14.35
2023-02-09T06:19:00.472Z,17.77
2023-02-09T06:22:04.362Z,15.50
2023-02-09T06:25:10.621Z,19.85
2023-02-09T06:28:16.407Z,17.38
2023-02-09T06:31:22.496Z,16.35
2023-02-09T06:34:27.232Z,14.02
2023-02-09T06:37:33.131Z,16.95
2023-02-09T06:40:36.988Z,15.63
2023-02-09T06:43:44.752Z,14.77
2023-02-09T06:46:48.570Z,13.50
2023-02-09T06:49:54.354Z,14.35
2023-02-09T06:52:59.070Z,11.70
2023-02-09T06:56:05.541Z,19.75
2023-02-09T06:59:11.293Z,15.57
2023-02-09T07:02:17.297Z,17.42
2023-02-09T07:05:21.702Z,15.68
2023-02-09T07:08:27.503Z,17.38
2023-02-09T07:11:31.893Z,15.30
2023-02-09T07:14:39.635Z,14.65
2023-02-09T07:17:43.741Z,17.48
2023-02-09T07:20:55.789Z,16.55
2023-02-09T07:23:59.661Z,21.90
2023-02-09T07:27:06.076Z,18.17
2023-02-09T07:30:13.616Z,15.07
2023-02-09T07:33:19.568Z,16.15
2023-02-09T07:36:23.580Z,20.13
2023-02-09T07:39:29.653Z,16.60
2023-02-09T07:42:33.657Z,15.38
2023-02-09T07:45:44.347Z,17.70
2023-02-09T07:48:48.979Z,15.15
2023-02-09T07:51:54.826Z,16.48
2023-02-09T07:54:58.847Z,16.50
2023-02-09T07:58:04.715Z,17.95
2023-02-09T08:01:13.509Z,17.65
2023-02-09T08:04:19.393Z,16.88
2023-02-09T08:07:23.432Z,19.23
2023-02-09T08:10:29.511Z,16.38
2023-02-09T08:13:37.737Z,16.60
2023-02-09T08:16:45.980Z,22.15
2023-02-09T08:19:53.619Z,22.90
2023-02-09T08:23:06.773Z,15.70
2023-02-09T08:26:12.495Z,21.48
2023-02-09T08:29:18.316Z,20.70
2023-02-09T08:32:24.310Z,18.30
2023-02-09T08:35:30.833Z,21.08
2023-02-09T08:38:36.558Z,18.65
2023-02-09T08:41:43.748Z,17.52
2023-02-09T08:44:49.091Z,16.85
2023-02-09T08:47:56.889Z,17.67
2023-02-09T08:51:01.118Z,16.83
2023-02-09T08:54:06.948Z,15.02
2023-02-09T08:57:10.777Z,16.48
2023-02-09T09:00:18.349Z,21.73
2023-02-09T09:03:27.128Z,21.25
2023-02-09T09:06:32.967Z,16.05
2023-02-09T09:09:36.991Z,15.23
2023-02-09T09:12:42.868Z,19.00
2023-02-09T09:15:47.056Z,17.45
2023-02-09T09:18:54.946Z,17.95
2023-02-09T09:22:02.854Z,22.65
2023-02-09T09:25:09.337Z,18.92
2023-02-09T09:28:13.244Z,17.55
2023-02-09T09:31:20.054Z,18.80
2023-02-09T09:34:25.878Z,18.08
2023-02-09T09:37:31.786Z,21.42
2023-02-09T09:40:38.826Z,19.58
2023-02-09T09:43:44.826Z,20.08
2023-02-09T09:46:52.344Z,17.48
2023-02-09T09:50:00.143Z,21.73
2023-02-09T09:53:12.336Z,16.02
2023-02-09T09:56:21.800Z,23.13
2023-02-09T09:59:28.277Z,18.77
2023-02-09T10:02:35.866Z,18.25
2023-02-09T10:05:41.983Z,21.63
2023-02-09T10:08:52.937Z,17.60
2023-02-09T10:12:05.585Z,19.63
2023-02-09T10:15:28.890Z,18.65
2023-02-09T10:18:37.561Z,15.73
2023-02-09T10:21:45.959Z,19.52
2023-02-09T10:24:49.801Z,17.75
2023-02-09T10:27:55.663Z,13.52
2023-02-09T10:34:15.137Z,20.13
2023-02-09T10:37:23.650Z,20.92
2023-02-09T10:40:32.031Z,16.45
2023-02-09T10:43:36.693Z,19.88
2023-02-09T10:46:42.602Z,16.42
2023-02-09T10:49:54.357Z,18.40
2023-02-09T10:53:03.974Z,14.00
2023-02-09T10:56:16.213Z,15.02
2023-02-09T10:59:24.765Z,17.35
2023-02-09T11:02:36.558Z,21.55
2023-02-09T11:05:42.379Z,15.40
2023-02-09T11:11:55.770Z,16.30
2023-02-09T11:14:59.613Z,16.98
2023-02-09T11:18:13.064Z,19.85
2023-02-09T11:21:21.652Z,18.50
2023-02-09T11:24:46.124Z,19.75
2023-02-09T11:28:26.681Z,29.17
2023-02-09T11:31:47.773Z,22.23
2023-02-09T11:35:11.640Z,19.02
2023-02-09T11:38:21.020Z,23.13
2023-02-09T11:41:44.829Z,23.20
2023-02-09T11:44:59.035Z,21.67
2023-02-09T11:48:09.398Z,23.83
2023-02-09T11:51:18.924Z,21.85
2023-02-09T11:54:27.983Z,18.25
2023-02-09T11:57:41.938Z,20.27
2023-02-09T12:00:57.972Z,21.30
2023-02-09T12:07:26.433Z,28.08
2023-02-09T12:10:36.028Z,20.65
2023-02-09T12:13:57.542Z,21.33
2023-02-09T12:17:12.961Z,28.33
2023-02-09T12:20:29.760Z,24.92
2023-02-09T12:23:37.455Z,21.30
2023-02-09T12:26:43.798Z,19.23
2023-02-09T12:29:51.577Z,20.25
2023-02-09T12:33:17.194Z,20.25
2023-02-09T12:36:29.620Z,19.40
2023-02-09T12:39:35.141Z,19.15
2023-02-09T12:42:42.535Z,27.00
2023-02-09T12:46:12.142Z,20.20
2023-02-09T12:49:22.553Z,24.98
2023-02-09T12:52:26.460Z,19.65
2023-02-09T12:55:32.523Z,18.27
2023-02-09T12:58:38.622Z,20.63
2023-02-09T13:02:13.369Z,17.10
2023-02-09T13:05:19.488Z,27.52
2023-02-09T13:08:46.437Z,16.70
2023-02-09T13:11:57.102Z,18.48
2023-02-09T13:15:13.066Z,13.13
2023-02-09T13:18:26.506Z,16.50
2023-02-09T13:21:40.126Z,18.48
2023-02-09T13:24:50.413Z,18.60
2023-02-09T13:27:56.378Z,21.92
2023-02-09T13:31:01.087Z,22.42
2023-02-09T13:34:25.044Z,19.13
2023-02-09T13:37:36.331Z,17.50
2023-02-09T13:40:47.879Z,21.20
2023-02-09T13:43:51.792Z,19.33
2023-02-09T13:46:59.820Z,21.55
2023-02-09T13:50:13.345Z,17.27
2023-02-09T13:53:22.342Z,19.33
2023-02-09T13:56:28.057Z,24.60
2023-02-09T13:59:34.601Z,20.40
2023-02-09T14:02:39.875Z,20.55
2023-02-09T14:05:52.212Z,21.52
2023-02-09T14:08:57.184Z,16.50
2023-02-09T14:12:09.369Z,19.75
2023-02-09T14:15:29.366Z,19.98
2023-02-09T14:18:50.030Z,18.58
2023-02-09T14:21:55.902Z,22.38
2023-02-09T14:25:02.176Z,20.52
2023-02-09T14:28:06.247Z,19.63
2023-02-09T14:31:20.686Z,21.23
2023-02-09T14:34:31.152Z,22.95
2023-02-09T14:37:39.976Z,24.92
2023-02-09T14:40:43.786Z,22.38
2023-02-09T14:43:59.493Z,28.35
2023-02-09T14:47:03.397Z,25.98
2023-02-09T14:50:14.631Z,23.20
2023-02-09T14:53:21.046Z,20.50
2023-02-09T14:56:33.884Z,19.23
2023-02-09T14:59:37.835Z,21.60
2023-02-09T15:02:43.824Z,21.63
2023-02-09T15:05:49.574Z,21.17
2023-02-09T15:08:57.294Z,24.90
2023-02-09T15:12:07.308Z,21.70
2023-02-09T15:15:18.014Z,25.75
2023-02-09T15:18:23.472Z,26.13
2023-02-09T15:21:29.453Z,23.42
2023-02-09T15:24:35.574Z,26.23
2023-02-09T15:27:51.168Z,21.67
2023-02-09T15:30:55.884Z,22.83
2023-02-09T15:34:01.766Z,22.70
2023-02-09T15:40:36.925Z,24.58
2023-02-09T15:43:53.961Z,23.67
2023-02-09T15:47:13.011Z,25.58
2023-02-09T15:50:17.866Z,26.00
2023-02-09T15:53:25.954Z,18.58
2023-02-09T15:56:31.936Z,23.75
2023-02-09T15:59:37.843Z,25.35
2023-02-09T16:05:49.813Z,27.85
2023-02-09T16:08:54.267Z,21.25
2023-02-09T16:12:02.084Z,21.38
2023-02-09T16:15:14.854Z,22.77
2023-02-09T16:18:20.973Z,23.27
2023-02-09T16:21:27.832Z,24.98
2023-02-09T16:24:37.718Z,23.92
2023-02-09T16:27:43.502Z,22.17
2023-02-09T16:30:53.316Z,27.27
2023-02-09T16:33:57.229Z,22.17
2023-02-09T16:37:03.168Z,26.63
2023-02-09T16:43:16.215Z,22.23
2023-02-09T16:46:20.089Z,26.02
2023-02-09T16:49:33.579Z,26.10
2023-02-09T16:52:38.677Z,25.88
2023-02-09T16:55:47.962Z,23.75
2023-02-09T16:58:54.927Z,23.52
2023-02-09T17:02:01.599Z,22.27
2023-02-09T17:05:16.727Z,23.10
2023-02-09T17:08:24.809Z,24.73
2023-02-09T17:11:30.171Z,22.88
2023-02-09T17:14:37.981Z,29.40
2023-02-09T17:17:47.424Z,26.85
2023-02-09T17:20:56.587Z,26.10
2023-02-09T17:24:00.442Z,21.30
2023-02-09T17:27:06.357Z,27.27
2023-02-09T17:33:23.236Z,26.30
2023-02-09T17:36:29.161Z,24.45
2023-02-09T17:39:35.407Z,27.65
2023-02-09T17:45:50.395Z,24.63
2023-02-09T17:48:54.278Z,24.40
2023-02-09T17:52:00.369Z,26.95
2023-02-09T17:55:04.156Z,27.85
2023-02-09T17:58:10.131Z,26.67
2023-02-09T18:01:26.808Z,27.27
2023-02-09T18:04:33.219Z,24.65
2023-02-09T18:07:37.065Z,25.65
2023-02-09T18:10:42.966Z,26.35
2023-02-09T18:16:55.048Z,26.50
2023-02-09T18:19:58.902Z,29.77
2023-02-09T18:23:06.516Z,34.15
2023-02-09T18:26:10.458Z,29.83
2023-02-09T18:29:16.385Z,32.38
2023-02-09T18:35:34.557Z,31.13
2023-02-09T18:38:39.114Z,33.13
2023-02-09T18:41:47.776Z,32.05
2023-02-09T18:44:51.679Z,30.45
2023-02-09T18:47:59.739Z,38.42
2023-02-09T18:51:03.627Z,34.40
2023-02-09T18:54:09.515Z,28.77
2023-02-09T19:00:20.969Z,42.08
2023-02-09T19:03:26.988Z,31.77
2023-02-09T19:06:34.871Z,39.20
2023-02-09T19:09:39.729Z,38.03
2023-02-09T19:12:47.042Z,34.22
2023-02-09T19:15:51.004Z,33.17
2023-02-09T19:19:00.149Z,37.28
2023-02-09T19:22:03.956Z,36.30
2023-02-09T19:25:10.408Z,35.45
2023-02-09T19:28:14.948Z,37.15
2023-02-09T19:31:20.829Z,36.65
2023-02-09T19:37:32.580Z,37.17
2023-02-09T19:40:40.345Z,45.72
2023-02-09T19:43:46.156Z,46.58
2023-02-09T19:46:50.302Z,36.70
2023-02-09T19:49:59.748Z,40.95
2023-02-09T19:53:04.198Z,42.22
2023-02-09T19:56:16.247Z,37.42
2023-02-09T19:59:20.090Z,37.60
2023-02-09T20:02:26.068Z,34.53
2023-02-09T20:08:38.741Z,41.15
2023-02-09T20:11:42.614Z,45.13
2023-02-09T20:14:48.614Z,53.45
2023-02-09T20:21:00.112Z,34.90
2023-02-09T20:24:08.858Z,40.40
2023-02-09T20:27:14.736Z,39.83
2023-02-09T20:33:24.236Z,40.72
2023-02-09T20:36:30.393Z,39.22
2023-02-09T20:39:36.277Z,47.05
2023-02-09T20:46:12.315Z,39.17
2023-02-09T20:49:18.889Z,45.40
2023-02-09T20:52:27.165Z,39.60
2023-02-09T20:55:31.915Z,43.78
2023-02-09T20:58:38.144Z,44.72
2023-02-09T21:01:42.244Z,39.72
2023-02-09T21:04:48.057Z,40.45
2023-02-09T21:11:00.283Z,47.72
2023-02-09T21:14:04.459Z,52.00
2023-02-09T21:17:10.341Z,46.30
2023-02-09T21:23:21.978Z,42.05
2023-02-09T21:26:25.915Z,39.60
2023-02-09T21:29:33.718Z,44.53
2023-02-09T21:32:38.347Z,37.40
2023-02-09T21:35:44.158Z,41.63
2023-02-09T21:42:08.651Z,41.97
2023-02-09T21:45:12.662Z,46.45
2023-02-09T21:48:18.510Z,40.45
2023-02-09T21:51:22.771Z,49.38
2023-02-09T21:54:33.184Z,43.28
2023-02-09T21:57:37.612Z,42.45
2023-02-09T22:00:43.398Z,42.97
2023-02-09T22:03:52.073Z,45.00
2023-02-09T22:06:57.952Z,47.03
2023-02-09T22:13:09.407Z,42.40
2023-02-09T22:19:24.227Z,43.70
2023-02-09T22:22:28.049Z,46.95
2023-02-09T22:25:36.088Z,43.97
2023-02-09T22:28:40.083Z,43.45
2023-02-09T22:31:46.365Z,43.00
2023-02-09T22:34:50.184Z,53.00
2023-02-09T22:37:55.973Z,45.40
2023-02-09T22:44:14.784Z,42.55
2023-02-09T22:47:18.673Z,37.83
2023-02-09T22:50:24.784Z,41.83
2023-02-09T22:53:28.629Z,43.67
2023-02-09T22:56:36.549Z,41.90
2023-02-09T22:59:40.464Z,38.53
2023-02-09T23:02:46.395Z,37.90
2023-02-09T23:05:50.493Z,44.38
2023-02-09T23:08:57.507Z,40.83
2023-02-09T23:12:03.342Z,38.10
2023-02-09T23:15:10.391Z,39.90
2023-02-09T23:18:16.302Z,54.05
2023-02-09T23:21:21.219Z,42.55
2023-02-09T23:24:27.340Z,41.45
2023-02-09T23:27:33.088Z,36.63
2023-02-09T23:30:38.939Z,33.88
2023-02-09T23:36:49.148Z,47.35
2023-02-09T23:39:52.891Z,43.40
2023-02-09T23:43:00.760Z,38.15
2023-02-09T23:46:05.559Z,40.60
2023-02-09T23:49:12.094Z,48.75
2023-02-09T23:52:15.901Z,42.58
2023-02-09T23:55:21.761Z,41.58
